createdAt,value
2017-02-21T00:00:09.302Z,73509
2017-02-21T00:00:19.847Z,73506
2017-02-21T00:00:30.413Z,73502
2017-02-21T00:00:40.595Z,73499
2017-02-21T00:00:50.405Z,73498
2017-02-21T00:01:00.969Z,73502
2017-02-21T00:01:11.531Z,73502
2017-02-21T00:01:21.743Z,73511
2017-02-21T00:01:32.281Z,73510
2017-02-21T00:01:42.856Z,73509
2017-02-21T00:01:53.403Z,73507
2017-02-21T00:02:03.946Z,73497
2017-02-21T00:02:14.493Z,73498
2017-02-21T00:02:25.022Z,73494
2017-02-21T00:02:35.571Z,73491
2017-02-21T00:02:46.133Z,73488
2017-02-21T00:02:56.701Z,73487
2017-02-21T00:03:07.236Z,73498
2017-02-21T00:03:17.409Z,73498
2017-02-21T00:03:27.972Z,73505
2017-02-21T00:03:38.527Z,73495
2017-02-21T00:03:49.086Z,73498
2017-02-21T00:03:59.645Z,73496
2017-02-21T00:04:10.230Z,73502
2017-02-21T00:04:20.775Z,73510
2017-02-21T00:04:31.323Z,73512
2017-02-21T00:04:41.879Z,73509
2017-02-21T00:04:51.679Z,73503
2017-02-21T00:05:02.223Z,73507
2017-02-21T00:05:12.404Z,73505
2017-02-21T00:05:22.241Z,73505
2017-02-21T00:05:32.793Z,73507
2017-02-21T00:05:42.964Z,73508
2017-02-21T00:05:53.158Z,73511
2017-02-21T00:06:03.325Z,73509
2017-02-21T00:06:13.472Z,73503
2017-02-21T00:06:23.694Z,73497
2017-02-21T00:06:34.240Z,73495
2017-02-21T00:06:44.840Z,73498
2017-02-21T00:06:55.015Z,73492
2017-02-21T00:07:05.553Z,73498
2017-02-21T00:07:16.106Z,73500
2017-02-21T00:07:26.650Z,73495
2017-02-21T00:07:37.186Z,73496
2017-02-21T00:07:47.734Z,73495
2017-02-21T00:07:58.296Z,73490
2017-02-21T00:08:08.489Z,73494
2017-02-21T00:08:19.045Z,73500
2017-02-21T00:08:28.856Z,73499
2017-02-21T00:08:39.455Z,73495
2017-02-21T00:08:50.007Z,73496
2017-02-21T00:09:00.559Z,73493
2017-02-21T00:09:10.746Z,73501
2017-02-21T00:09:20.895Z,73500
2017-02-21T00:09:31.469Z,73495
2017-02-21T00:09:42.024Z,73491
2017-02-21T00:09:52.552Z,73495
2017-02-21T00:10:03.113Z,73504
2017-02-21T00:10:13.658Z,73497
2017-02-21T00:10:24.258Z,73496
2017-02-21T00:10:34.792Z,73489
2017-02-21T00:10:44.977Z,73494
2017-02-21T00:10:55.533Z,73497
2017-02-21T00:11:05.726Z,73500
2017-02-21T00:11:15.885Z,73498
2017-02-21T00:11:26.441Z,73491
2017-02-21T00:11:36.974Z,73496
2017-02-21T00:11:47.534Z,73495
2017-02-21T00:11:58.078Z,73493
2017-02-21T00:12:08.627Z,73493
2017-02-21T00:12:19.168Z,73496
2017-02-21T00:12:29.749Z,73494
2017-02-21T00:12:40.301Z,73486
2017-02-21T00:12:50.870Z,73486
2017-02-21T00:13:01.434Z,73483
2017-02-21T00:13:12.007Z,73465
2017-02-21T00:13:22.189Z,73479
2017-02-21T00:13:32.722Z,73476
2017-02-21T00:13:43.256Z,73494
2017-02-21T00:13:53.811Z,73497
2017-02-21T00:14:04.374Z,73499
2017-02-21T00:14:14.931Z,73499
2017-02-21T00:14:25.130Z,73499
2017-02-21T00:14:35.698Z,73499
2017-02-21T00:14:45.855Z,73492
2017-02-21T00:14:55.656Z,73492
2017-02-21T00:15:05.840Z,73492
2017-02-21T00:15:16.377Z,73501
2017-02-21T00:15:26.622Z,73505
2017-02-21T00:15:37.190Z,73506
2017-02-21T00:15:47.753Z,73505
2017-02-21T00:15:58.318Z,73504
2017-02-21T00:16:08.866Z,73483
2017-02-21T00:16:19.412Z,73480
2017-02-21T00:16:29.985Z,73483
2017-02-21T00:16:40.523Z,73481
2017-02-21T00:16:51.068Z,73481
2017-02-21T00:17:01.620Z,73480
2017-02-21T00:17:11.806Z,73469
2017-02-21T00:17:21.987Z,73482
2017-02-21T00:17:32.153Z,73489
2017-02-21T00:17:42.679Z,73496
2017-02-21T00:17:53.236Z,73498
2017-02-21T00:18:03.412Z,73497
2017-02-21T00:18:13.960Z,73496
2017-02-21T00:18:24.508Z,73498
2017-02-21T00:18:35.041Z,73507
2017-02-21T00:18:45.602Z,73505
2017-02-21T00:18:56.138Z,73509
2017-02-21T00:19:05.958Z,73511
2017-02-21T00:19:16.138Z,73500
2017-02-21T00:19:26.341Z,73497
2017-02-21T00:19:36.891Z,73496
2017-02-21T00:19:47.052Z,73502
2017-02-21T00:19:57.597Z,73505
2017-02-21T00:20:08.146Z,73507
2017-02-21T00:20:18.303Z,73506
2017-02-21T00:20:28.867Z,73500
2017-02-21T00:20:39.436Z,73500
2017-02-21T00:20:49.985Z,73505
2017-02-21T00:21:00.548Z,73502
2017-02-21T00:21:11.080Z,73500
2017-02-21T00:21:21.271Z,73496
2017-02-21T00:21:31.455Z,73501
2017-02-21T00:21:42.033Z,73499
2017-02-21T00:21:52.216Z,73498
2017-02-21T00:22:02.784Z,73486
2017-02-21T00:22:12.222Z,73492
2017-02-21T00:22:22.403Z,73495
2017-02-21T00:22:32.959Z,73496
2017-02-21T00:22:43.514Z,73499
2017-02-21T00:22:54.089Z,73492
2017-02-21T00:23:04.650Z,73483
2017-02-21T00:23:14.840Z,73479
2017-02-21T00:23:25.403Z,73482
2017-02-21T00:23:35.969Z,73478
2017-02-21T00:23:46.510Z,73488
2017-02-21T00:23:57.061Z,73490
2017-02-21T00:24:07.596Z,73492
2017-02-21T00:24:17.744Z,73495
2017-02-21T00:24:28.329Z,73494
2017-02-21T00:24:38.861Z,73489
2017-02-21T00:24:49.402Z,73494
2017-02-21T00:24:59.986Z,73497
2017-02-21T00:25:10.522Z,73502
2017-02-21T00:25:21.044Z,73505
2017-02-21T00:25:31.227Z,73498
2017-02-21T00:25:41.780Z,73493
2017-02-21T00:25:51.987Z,73497
2017-02-21T00:26:02.155Z,73492
2017-02-21T00:26:12.332Z,73493
2017-02-21T00:26:22.926Z,73496
2017-02-21T00:26:33.462Z,73502
2017-02-21T00:26:44.027Z,73480
2017-02-21T00:26:54.592Z,73478
2017-02-21T00:27:04.794Z,73481
2017-02-21T00:27:15.352Z,73490
2017-02-21T00:27:25.517Z,73492
2017-02-21T00:27:36.073Z,73481
2017-02-21T00:27:46.261Z,73487
2017-02-21T00:27:56.817Z,73490
2017-02-21T00:28:07.377Z,73498
2017-02-21T00:28:17.576Z,73499
2017-02-21T00:28:27.755Z,73493
2017-02-21T00:28:38.287Z,73496
2017-02-21T00:28:48.835Z,73498
2017-02-21T00:28:59.377Z,73499
2017-02-21T00:29:09.896Z,73502
2017-02-21T00:29:20.471Z,73498
2017-02-21T00:29:30.651Z,73496
2017-02-21T00:29:41.207Z,73501
2017-02-21T00:29:51.771Z,73501
2017-02-21T00:30:02.319Z,73499
2017-02-21T00:30:12.153Z,73493
2017-02-21T00:30:22.348Z,73487
2017-02-21T00:30:32.944Z,73492
2017-02-21T00:30:43.508Z,73494
2017-02-21T00:30:54.063Z,73495
2017-02-21T00:31:04.609Z,73501
2017-02-21T00:31:15.146Z,73504
2017-02-21T00:31:24.959Z,73503
2017-02-21T00:31:35.504Z,73499
2017-02-21T00:31:46.043Z,73488
2017-02-21T00:31:56.619Z,73485
2017-02-21T00:32:07.161Z,73478
2017-02-21T00:32:17.360Z,73488
2017-02-21T00:32:27.910Z,73487
2017-02-21T00:32:38.061Z,73486
2017-02-21T00:32:48.613Z,73491
2017-02-21T00:32:59.179Z,73481
2017-02-21T00:33:09.750Z,73480
2017-02-21T00:33:19.924Z,73484
2017-02-21T00:33:30.466Z,73486
2017-02-21T00:33:41.021Z,73490
2017-02-21T00:33:51.632Z,73487
2017-02-21T00:34:02.179Z,73490
2017-02-21T00:34:12.727Z,73483
2017-02-21T00:34:22.906Z,73483
2017-02-21T00:34:33.449Z,73484
2017-02-21T00:34:44.011Z,73487
2017-02-21T00:34:54.559Z,73490
2017-02-21T00:35:05.119Z,73492
2017-02-21T00:35:15.268Z,73491
2017-02-21T00:35:25.431Z,73481
2017-02-21T00:35:35.994Z,73471
2017-02-21T00:35:46.189Z,73459
2017-02-21T00:35:56.806Z,73442
2017-02-21T00:36:07.386Z,73443
2017-02-21T00:36:17.572Z,73441
2017-02-21T00:36:27.752Z,73455
2017-02-21T00:36:38.321Z,73437
2017-02-21T00:36:48.490Z,73454
2017-02-21T00:36:58.686Z,73467
2017-02-21T00:37:08.858Z,73467
2017-02-21T00:37:19.399Z,73465
2017-02-21T00:37:29.569Z,73467
2017-02-21T00:37:40.123Z,73475
2017-02-21T00:37:50.747Z,73474
2017-02-21T00:38:00.921Z,73475
2017-02-21T00:38:11.127Z,73485
2017-02-21T00:38:20.945Z,73475
2017-02-21T00:38:31.503Z,73456
2017-02-21T00:38:42.075Z,73478
2017-02-21T00:38:52.613Z,73480
2017-02-21T00:39:03.157Z,73480
2017-02-21T00:39:12.975Z,73480
2017-02-21T00:39:22.781Z,73467
2017-02-21T00:39:32.963Z,73456
2017-02-21T00:39:43.167Z,73457
2017-02-21T00:39:53.718Z,73458
2017-02-21T00:40:03.885Z,73460
2017-02-21T00:40:14.464Z,73470
2017-02-21T00:40:25.012Z,73476
2017-02-21T00:40:35.569Z,73482
2017-02-21T00:40:45.735Z,73469
2017-02-21T00:40:55.903Z,73450
2017-02-21T00:41:06.424Z,73453
2017-02-21T00:41:16.994Z,73462
2017-02-21T00:41:27.174Z,73456
2017-02-21T00:41:37.731Z,73455
2017-02-21T00:41:48.290Z,73456
2017-02-21T00:41:58.477Z,73461
2017-02-21T00:42:08.278Z,73465
2017-02-21T00:42:18.875Z,73456
2017-02-21T00:42:29.057Z,73444
2017-02-21T00:42:39.605Z,73439
2017-02-21T00:42:50.143Z,73439
2017-02-21T00:43:00.685Z,73456
2017-02-21T00:43:10.872Z,73461
2017-02-21T00:43:21.059Z,73451
2017-02-21T00:43:31.611Z,73448
2017-02-21T00:43:42.216Z,73451
2017-02-21T00:43:52.747Z,73446
2017-02-21T00:44:02.906Z,73467
2017-02-21T00:44:12.706Z,73473
2017-02-21T00:44:22.862Z,73471
2017-02-21T00:44:33.432Z,73468
2017-02-21T00:44:44.006Z,73462
2017-02-21T00:44:54.579Z,73468
2017-02-21T00:45:05.165Z,73471
2017-02-21T00:45:15.354Z,73474
2017-02-21T00:45:25.896Z,73472
2017-02-21T00:45:35.683Z,73468
2017-02-21T00:45:46.227Z,73466
2017-02-21T00:45:56.798Z,73474
2017-02-21T00:46:07.328Z,73476
2017-02-21T00:46:17.536Z,73466
2017-02-21T00:46:27.732Z,73454
2017-02-21T00:46:38.275Z,73452
2017-02-21T00:46:48.872Z,73442
2017-02-21T00:46:59.435Z,73448
2017-02-21T00:47:09.983Z,73461
2017-02-21T00:47:20.144Z,73460
2017-02-21T00:47:30.685Z,73444
2017-02-21T00:47:40.882Z,73457
2017-02-21T00:47:51.085Z,73470
2017-02-21T00:48:01.631Z,73460
2017-02-21T00:48:11.789Z,73465
2017-02-21T00:48:22.347Z,73469
2017-02-21T00:48:32.504Z,73458
2017-02-21T00:48:42.675Z,73477
2017-02-21T00:48:53.244Z,73485
2017-02-21T00:49:03.776Z,73473
2017-02-21T00:49:14.346Z,73468
2017-02-21T00:49:24.872Z,73442
2017-02-21T00:49:35.436Z,73449
2017-02-21T00:49:45.244Z,73483
2017-02-21T00:49:55.799Z,73481
2017-02-21T00:50:05.978Z,73457
2017-02-21T00:50:16.519Z,73442
2017-02-21T00:50:27.058Z,73430
2017-02-21T00:50:37.610Z,73460
2017-02-21T00:50:48.159Z,73435
2017-02-21T00:50:58.714Z,73441
2017-02-21T00:51:09.252Z,73434
2017-02-21T00:51:19.450Z,73454
2017-02-21T00:51:29.990Z,73447
2017-02-21T00:51:40.540Z,73473
2017-02-21T00:51:51.090Z,73478
2017-02-21T00:52:01.654Z,73476
2017-02-21T00:52:11.827Z,73468
2017-02-21T00:52:22.357Z,73444
2017-02-21T00:52:32.892Z,73459
2017-02-21T00:52:43.429Z,73471
2017-02-21T00:52:53.973Z,73458
2017-02-21T00:53:04.529Z,73462
2017-02-21T00:53:15.072Z,73463
2017-02-21T00:53:25.236Z,73470
2017-02-21T00:53:35.408Z,73478
2017-02-21T00:53:45.616Z,73475
2017-02-21T00:53:56.179Z,73462
2017-02-21T00:54:06.698Z,73483
2017-02-21T00:54:16.899Z,73466
2017-02-21T00:54:27.078Z,73478
2017-02-21T00:54:37.620Z,73463
2017-02-21T00:54:47.814Z,73467
2017-02-21T00:54:58.373Z,73462
2017-02-21T00:55:08.918Z,73473
2017-02-21T00:55:19.464Z,73443
2017-02-21T00:55:30.000Z,73434
2017-02-21T00:55:40.559Z,73433
2017-02-21T00:55:51.103Z,73456
2017-02-21T00:56:01.690Z,73477
2017-02-21T00:56:11.848Z,73468
2017-02-21T00:56:21.675Z,73461
2017-02-21T00:56:32.221Z,73440
2017-02-21T00:56:42.785Z,73425
2017-02-21T00:56:53.338Z,73452
2017-02-21T00:57:03.919Z,73493
2017-02-21T00:57:14.493Z,73496
2017-02-21T00:57:25.049Z,73496
2017-02-21T00:57:35.594Z,73489
2017-02-21T00:57:46.198Z,73495
2017-02-21T00:57:56.784Z,73478
2017-02-21T00:58:07.308Z,73458
2017-02-21T00:58:17.116Z,73459
2017-02-21T00:58:27.667Z,73476
2017-02-21T00:58:37.853Z,73472
2017-02-21T00:58:48.440Z,73443
2017-02-21T00:58:59.046Z,73441
2017-02-21T00:59:09.598Z,73445
2017-02-21T00:59:20.163Z,73480
2017-02-21T00:59:30.690Z,73455
2017-02-21T00:59:41.249Z,73463
2017-02-21T00:59:51.790Z,73461
2017-02-21T01:00:02.374Z,73464
2017-02-21T01:00:12.572Z,73451
2017-02-21T01:00:22.830Z,73469
2017-02-21T01:00:33.360Z,73478
2017-02-21T01:00:43.913Z,73489
2017-02-21T01:00:54.443Z,73478
2017-02-21T01:01:04.984Z,73469
2017-02-21T01:01:15.584Z,73446
2017-02-21T01:01:26.142Z,73461
2017-02-21T01:01:36.669Z,73451
2017-02-21T01:01:46.842Z,73449
2017-02-21T01:01:57.374Z,73456
2017-02-21T01:02:07.570Z,73469
2017-02-21T01:02:17.388Z,73469
2017-02-21T01:02:27.918Z,73464
2017-02-21T01:02:38.108Z,73465
2017-02-21T01:02:48.653Z,73455
2017-02-21T01:02:59.205Z,73452
2017-02-21T01:03:09.737Z,73451
2017-02-21T01:03:20.294Z,73452
2017-02-21T01:03:30.866Z,73440
2017-02-21T01:03:41.408Z,73456
2017-02-21T01:03:51.951Z,73452
2017-02-21T01:04:02.142Z,73428
2017-02-21T01:04:12.690Z,73430
2017-02-21T01:04:22.866Z,73420
2017-02-21T01:04:33.374Z,73426
2017-02-21T01:04:42.811Z,73442
2017-02-21T01:04:53.347Z,73452
2017-02-21T01:05:03.884Z,73439
2017-02-21T01:05:14.446Z,73433
2017-02-21T01:05:25.033Z,73448
2017-02-21T01:05:35.186Z,73460
2017-02-21T01:05:45.752Z,73467
2017-02-21T01:05:55.934Z,73452
2017-02-21T01:06:06.473Z,73452
2017-02-21T01:06:17.020Z,73449
2017-02-21T01:06:27.178Z,73454
2017-02-21T01:06:37.767Z,73452
2017-02-21T01:06:48.281Z,73444
2017-02-21T01:06:58.832Z,73450
2017-02-21T01:07:09.362Z,73447
2017-02-21T01:07:19.913Z,73466
2017-02-21T01:07:30.446Z,73472
2017-02-21T01:07:40.985Z,73462
2017-02-21T01:07:51.540Z,73462
2017-02-21T01:08:02.100Z,73452
2017-02-21T01:08:12.638Z,73463
2017-02-21T01:08:22.798Z,73462
2017-02-21T01:08:33.347Z,73445
2017-02-21T01:08:43.954Z,73420
2017-02-21T01:08:54.513Z,73411
2017-02-21T01:09:05.086Z,73438
2017-02-21T01:09:14.890Z,73446
2017-02-21T01:09:25.455Z,73448
2017-02-21T01:09:35.648Z,73442
2017-02-21T01:09:46.194Z,73458
2017-02-21T01:09:56.731Z,73458
2017-02-21T01:10:07.270Z,73464
2017-02-21T01:10:17.815Z,73466
2017-02-21T01:10:28.021Z,73473
2017-02-21T01:10:38.582Z,73475
2017-02-21T01:10:49.131Z,73469
2017-02-21T01:10:59.689Z,73480
2017-02-21T01:11:10.276Z,73477
2017-02-21T01:11:20.474Z,73485
2017-02-21T01:11:31.031Z,73475
2017-02-21T01:11:41.571Z,73473
2017-02-21T01:11:51.732Z,73470
2017-02-21T01:12:02.267Z,73464
2017-02-21T01:12:12.109Z,73469
2017-02-21T01:12:22.295Z,73468
2017-02-21T01:12:32.831Z,73464
2017-02-21T01:12:43.411Z,73473
2017-02-21T01:12:53.983Z,73454
2017-02-21T01:13:04.557Z,73452
2017-02-21T01:13:15.102Z,73451
2017-02-21T01:13:25.276Z,73457
2017-02-21T01:13:35.459Z,73427
2017-02-21T01:13:45.641Z,73426
2017-02-21T01:13:55.826Z,73442
2017-02-21T01:14:06.411Z,73457
2017-02-21T01:14:16.615Z,73474
2017-02-21T01:14:27.227Z,73477
2017-02-21T01:14:37.393Z,73467
2017-02-21T01:14:47.545Z,73447
2017-02-21T01:14:58.106Z,73436
2017-02-21T01:15:08.691Z,73445
2017-02-21T01:15:19.245Z,73439
2017-02-21T01:15:29.049Z,73424
2017-02-21T01:15:39.611Z,73445
2017-02-21T01:15:50.177Z,73458
2017-02-21T01:16:00.715Z,73468
2017-02-21T01:16:11.277Z,73473
2017-02-21T01:16:21.839Z,73470
2017-02-21T01:16:32.386Z,73471
2017-02-21T01:16:42.977Z,73471
2017-02-21T01:16:53.127Z,73468
2017-02-21T01:17:03.681Z,73463
2017-02-21T01:17:14.229Z,73464
2017-02-21T01:17:24.756Z,73452
2017-02-21T01:17:35.332Z,73410
2017-02-21T01:17:45.881Z,73441
2017-02-21T01:17:56.452Z,73455
2017-02-21T01:18:07.016Z,73457
2017-02-21T01:18:16.812Z,73457
2017-02-21T01:18:27.373Z,73449
2017-02-21T01:18:37.916Z,73469
2017-02-21T01:18:48.107Z,73477
2017-02-21T01:18:58.302Z,73480
2017-02-21T01:19:08.087Z,73486
2017-02-21T01:19:18.290Z,73485
2017-02-21T01:19:28.825Z,73481
2017-02-21T01:19:39.370Z,73491
2017-02-21T01:19:49.926Z,73495
2017-02-21T01:20:00.457Z,73492
2017-02-21T01:20:10.641Z,73496
2017-02-21T01:20:21.202Z,73494
2017-02-21T01:20:31.755Z,73495
2017-02-21T01:20:42.297Z,73470
2017-02-21T01:20:52.508Z,73459
2017-02-21T01:21:03.033Z,73472
2017-02-21T01:21:13.182Z,73472
2017-02-21T01:21:23.738Z,73476
2017-02-21T01:21:34.304Z,73462
2017-02-21T01:21:44.873Z,73460
2017-02-21T01:21:55.428Z,73459
2017-02-21T01:22:05.257Z,73471
2017-02-21T01:22:15.440Z,73469
2017-02-21T01:22:25.974Z,73447
2017-02-21T01:22:36.550Z,73460
2017-02-21T01:22:47.080Z,73467
2017-02-21T01:22:57.659Z,73477
2017-02-21T01:23:07.834Z,73482
2017-02-21T01:23:18.027Z,73450
2017-02-21T01:23:28.575Z,73420
2017-02-21T01:23:39.141Z,73439
2017-02-21T01:23:49.336Z,73451
2017-02-21T01:23:59.880Z,73469
2017-02-21T01:24:10.431Z,73474
2017-02-21T01:24:20.602Z,73482
2017-02-21T01:24:31.163Z,73486
2017-02-21T01:24:41.733Z,73474
2017-02-21T01:24:51.929Z,73480
2017-02-21T01:25:02.462Z,73474
2017-02-21T01:25:12.632Z,73485
2017-02-21T01:25:22.825Z,73477
2017-02-21T01:25:33.026Z,73463
2017-02-21T01:25:43.223Z,73463
2017-02-21T01:25:53.463Z,73435
2017-02-21T01:26:04.028Z,73469
2017-02-21T01:26:13.829Z,73484
2017-02-21T01:26:24.001Z,73498
2017-02-21T01:26:34.205Z,73458
2017-02-21T01:26:44.394Z,73495
2017-02-21T01:26:54.956Z,73476
2017-02-21T01:27:05.163Z,73455
2017-02-21T01:27:15.344Z,73453
2017-02-21T01:27:25.907Z,73446
2017-02-21T01:27:36.095Z,73455
2017-02-21T01:27:46.675Z,73474
2017-02-21T01:27:56.829Z,73484
2017-02-21T01:28:07.395Z,73476
2017-02-21T01:28:17.538Z,73479
2017-02-21T01:28:28.111Z,73491
2017-02-21T01:28:38.655Z,73472
2017-02-21T01:28:49.192Z,73481
2017-02-21T01:28:59.404Z,73485
2017-02-21T01:29:09.958Z,73471
2017-02-21T01:29:20.489Z,73461
2017-02-21T01:29:30.298Z,73466
2017-02-21T01:29:40.856Z,73462
2017-02-21T01:29:51.422Z,73450
2017-02-21T01:30:02.031Z,73418
2017-02-21T01:30:12.585Z,73458
2017-02-21T01:30:23.146Z,73472
2017-02-21T01:30:32.613Z,73478
2017-02-21T01:30:43.166Z,73473
2017-02-21T01:30:53.718Z,73467
2017-02-21T01:31:04.258Z,73470
2017-02-21T01:31:14.788Z,73476
2017-02-21T01:31:25.327Z,73488
2017-02-21T01:31:35.519Z,73499
2017-02-21T01:31:46.137Z,73486
2017-02-21T01:31:56.704Z,73436
2017-02-21T01:32:07.266Z,73447
2017-02-21T01:32:17.460Z,73461
2017-02-21T01:32:28.028Z,73454
2017-02-21T01:32:38.636Z,73490
2017-02-21T01:32:49.190Z,73472
2017-02-21T01:32:59.706Z,73484
2017-02-21T01:33:09.909Z,73488
2017-02-21T01:33:20.472Z,73490
2017-02-21T01:33:31.001Z,73481
2017-02-21T01:33:41.541Z,73471
2017-02-21T01:33:52.101Z,73469
2017-02-21T01:34:02.650Z,73484
2017-02-21T01:34:13.236Z,73487
2017-02-21T01:34:23.782Z,73480
2017-02-21T01:34:34.339Z,73481
2017-02-21T01:34:44.919Z,73482
2017-02-21T01:34:55.455Z,73485
2017-02-21T01:35:05.627Z,73487
2017-02-21T01:35:15.795Z,73483
2017-02-21T01:35:26.357Z,73479
2017-02-21T01:35:36.911Z,73479
2017-02-21T01:35:47.450Z,73480
2017-02-21T01:35:58.016Z,73481
2017-02-21T01:36:07.836Z,73479
2017-02-21T01:36:18.390Z,73487
2017-02-21T01:36:28.955Z,73486
2017-02-21T01:36:39.501Z,73481
2017-02-21T01:36:49.328Z,73490
2017-02-21T01:36:59.889Z,73493
2017-02-21T01:37:10.094Z,73481
2017-02-21T01:37:20.274Z,73481
2017-02-21T01:37:30.826Z,73483
2017-02-21T01:37:41.378Z,73476
2017-02-21T01:37:51.922Z,73476
2017-02-21T01:38:02.470Z,73484
2017-02-21T01:38:12.658Z,73472
2017-02-21T01:38:22.819Z,73486
2017-02-21T01:38:33.407Z,73485
2017-02-21T01:38:43.931Z,73483
2017-02-21T01:38:54.464Z,73482
2017-02-21T01:39:05.026Z,73481
2017-02-21T01:39:15.578Z,73484
2017-02-21T01:39:25.792Z,73481
2017-02-21T01:39:36.353Z,73487
2017-02-21T01:39:46.520Z,73485
2017-02-21T01:39:57.080Z,73485
2017-02-21T01:40:07.280Z,73480
2017-02-21T01:40:17.828Z,73481
2017-02-21T01:40:28.365Z,73484
2017-02-21T01:40:38.916Z,73485
2017-02-21T01:40:49.459Z,73491
2017-02-21T01:41:00.043Z,73493
2017-02-21T01:41:10.597Z,73496
2017-02-21T01:41:21.134Z,73493
2017-02-21T01:41:31.309Z,73493
2017-02-21T01:41:41.875Z,73487
2017-02-21T01:41:52.429Z,73488
2017-02-21T01:42:03.006Z,73483
2017-02-21T01:42:13.205Z,73480
2017-02-21T01:42:23.752Z,73474
2017-02-21T01:42:34.316Z,73476
2017-02-21T01:42:44.865Z,73481
2017-02-21T01:42:55.419Z,73481
2017-02-21T01:43:06.004Z,73488
2017-02-21T01:43:16.197Z,73484
2017-02-21T01:43:26.001Z,73483
2017-02-21T01:43:36.551Z,73490
2017-02-21T01:43:47.107Z,73496
2017-02-21T01:43:57.657Z,73495
2017-02-21T01:44:07.842Z,73484
2017-02-21T01:44:18.031Z,73480
2017-02-21T01:44:28.589Z,73465
2017-02-21T01:44:39.132Z,73472
2017-02-21T01:44:49.286Z,73483
2017-02-21T01:44:59.834Z,73479
2017-02-21T01:45:10.005Z,73470
2017-02-21T01:45:20.193Z,73468
2017-02-21T01:45:30.371Z,73471
2017-02-21T01:45:40.916Z,73478
2017-02-21T01:45:51.479Z,73477
2017-02-21T01:46:02.037Z,73481
2017-02-21T01:46:12.202Z,73481
2017-02-21T01:46:22.379Z,73484
2017-02-21T01:46:32.918Z,73486
2017-02-21T01:46:43.117Z,73475
2017-02-21T01:46:53.293Z,73479
2017-02-21T01:47:03.831Z,73481
2017-02-21T01:47:14.386Z,73491
2017-02-21T01:47:24.939Z,73489
2017-02-21T01:47:35.482Z,73481
2017-02-21T01:47:45.641Z,73482
2017-02-21T01:47:56.181Z,73479
2017-02-21T01:48:06.738Z,73485
2017-02-21T01:48:16.921Z,73482
2017-02-21T01:48:27.453Z,73485
2017-02-21T01:48:37.998Z,73483
2017-02-21T01:48:48.186Z,73484
2017-02-21T01:48:58.360Z,73490
2017-02-21T01:49:08.904Z,73475
2017-02-21T01:49:19.455Z,73479
2017-02-21T01:49:30.003Z,73478
2017-02-21T01:49:40.572Z,73484
2017-02-21T01:49:51.121Z,73483
2017-02-21T01:50:01.656Z,73470
2017-02-21T01:50:12.173Z,73471
2017-02-21T01:50:22.722Z,73454
2017-02-21T01:50:33.284Z,73461
2017-02-21T01:50:43.449Z,73458
2017-02-21T01:50:53.984Z,73471
2017-02-21T01:51:04.546Z,73476
2017-02-21T01:51:15.087Z,73483
2017-02-21T01:51:25.636Z,73480
2017-02-21T01:51:36.223Z,73484
2017-02-21T01:51:46.759Z,73489
2017-02-21T01:51:56.621Z,73484
2017-02-21T01:52:07.198Z,73484
2017-02-21T01:52:17.728Z,73486
2017-02-21T01:52:28.317Z,73483
2017-02-21T01:52:38.857Z,73481
2017-02-21T01:52:49.388Z,73481
2017-02-21T01:52:59.945Z,73485
2017-02-21T01:53:10.497Z,73494
2017-02-21T01:53:20.315Z,73497
2017-02-21T01:53:30.863Z,73497
2017-02-21T01:53:41.025Z,73494
2017-02-21T01:53:51.222Z,73497
2017-02-21T01:54:01.417Z,73492
2017-02-21T01:54:11.962Z,73494
2017-02-21T01:54:22.157Z,73496
2017-02-21T01:54:32.723Z,73498
2017-02-21T01:54:42.900Z,73498
2017-02-21T01:54:53.070Z,73498
2017-02-21T01:55:03.633Z,73501
2017-02-21T01:55:13.424Z,73494
2017-02-21T01:55:23.607Z,73485
2017-02-21T01:55:34.150Z,73483
2017-02-21T01:55:44.700Z,73482
2017-02-21T01:55:55.240Z,73476
2017-02-21T01:56:05.796Z,73488
2017-02-21T01:56:16.003Z,73499
2017-02-21T01:56:26.577Z,73491
2017-02-21T01:56:37.147Z,73477
2017-02-21T01:56:47.707Z,73495
2017-02-21T01:56:58.270Z,73487
2017-02-21T01:57:08.803Z,73492
2017-02-21T01:57:19.354Z,73506
2017-02-21T01:57:29.939Z,73500
2017-02-21T01:57:40.482Z,73486
2017-02-21T01:57:51.032Z,73491
2017-02-21T01:58:01.615Z,73492
2017-02-21T01:58:11.793Z,73500
2017-02-21T01:58:22.347Z,73508
2017-02-21T01:58:32.890Z,73500
2017-02-21T01:58:43.053Z,73496
2017-02-21T01:58:53.598Z,73496
2017-02-21T01:59:04.140Z,73500
2017-02-21T01:59:14.014Z,73502
2017-02-21T01:59:23.826Z,73500
2017-02-21T01:59:34.361Z,73496
2017-02-21T01:59:44.909Z,73494
2017-02-21T01:59:55.439Z,73492
2017-02-21T02:00:05.997Z,73492
2017-02-21T02:00:16.539Z,73493
2017-02-21T02:00:27.135Z,73484
2017-02-21T02:00:37.668Z,73481
2017-02-21T02:00:48.179Z,73484
2017-02-21T02:00:58.769Z,73479
2017-02-21T02:01:08.937Z,73479
2017-02-21T02:01:19.486Z,73481
2017-02-21T02:01:29.690Z,73483
2017-02-21T02:01:40.250Z,73486
2017-02-21T02:01:50.814Z,73490
2017-02-21T02:02:01.371Z,73488
2017-02-21T02:02:11.939Z,73491
2017-02-21T02:02:22.478Z,73494
2017-02-21T02:02:33.106Z,73494
2017-02-21T02:02:43.289Z,73496
2017-02-21T02:02:53.877Z,73496
2017-02-21T02:03:04.462Z,73499
2017-02-21T02:03:14.992Z,73499
2017-02-21T02:03:25.184Z,73496
2017-02-21T02:03:35.728Z,73498
2017-02-21T02:03:45.887Z,73486
2017-02-21T02:03:56.453Z,73484
2017-02-21T02:04:07.029Z,73489
2017-02-21T02:04:17.223Z,73489
2017-02-21T02:04:27.751Z,73494
2017-02-21T02:04:38.303Z,73485
2017-02-21T02:04:48.152Z,73485
2017-02-21T02:04:58.323Z,73492
2017-02-21T02:05:08.886Z,73490
2017-02-21T02:05:19.423Z,73494
2017-02-21T02:05:29.943Z,73493
2017-02-21T02:05:40.499Z,73482
2017-02-21T02:05:51.059Z,73481
2017-02-21T02:06:01.671Z,73482
2017-02-21T02:06:12.215Z,73466
2017-02-21T02:06:22.743Z,73472
2017-02-21T02:06:33.306Z,73477
2017-02-21T02:06:43.819Z,73479
2017-02-21T02:06:54.345Z,73482
2017-02-21T02:07:04.889Z,73489
2017-02-21T02:07:15.456Z,73486
2017-02-21T02:07:25.987Z,73484
2017-02-21T02:07:36.552Z,73491
2017-02-21T02:07:47.099Z,73486
2017-02-21T02:07:57.622Z,73488
2017-02-21T02:08:08.168Z,73487
2017-02-21T02:08:18.353Z,73489
2017-02-21T02:08:28.923Z,73485
2017-02-21T02:08:39.471Z,73480
2017-02-21T02:08:49.323Z,73468
2017-02-21T02:08:59.877Z,73475
2017-02-21T02:09:10.404Z,73482
2017-02-21T02:09:20.931Z,73485
2017-02-21T02:09:31.522Z,73490
2017-02-21T02:09:42.085Z,73486
2017-02-21T02:09:52.642Z,73478
2017-02-21T02:10:02.834Z,73472
2017-02-21T02:10:12.647Z,73473
2017-02-21T02:10:23.225Z,73479
2017-02-21T02:10:33.772Z,73481
2017-02-21T02:10:44.324Z,73481
2017-02-21T02:10:54.523Z,73479
2017-02-21T02:11:05.083Z,73479
2017-02-21T02:11:15.626Z,73473
2017-02-21T02:11:26.197Z,73485
2017-02-21T02:11:36.741Z,73490
2017-02-21T02:11:46.925Z,73482
2017-02-21T02:11:57.461Z,73479
2017-02-21T02:12:08.027Z,73476
2017-02-21T02:12:17.853Z,73488
2017-02-21T02:12:28.423Z,73489
2017-02-21T02:12:38.946Z,73487
2017-02-21T02:12:49.565Z,73480
2017-02-21T02:13:00.103Z,73484
2017-02-21T02:13:10.651Z,73485
2017-02-21T02:13:21.195Z,73475
2017-02-21T02:13:31.753Z,73473
2017-02-21T02:13:42.311Z,73473
2017-02-21T02:13:52.481Z,73470
2017-02-21T02:14:03.076Z,73475
2017-02-21T02:14:13.626Z,73476